Time;durP1;ratioP1;P1;durP2;ratioP2;P2;SDS_P1;SDS_P2;PMS_P1;PMS_P2;Temp;Humidity;BMP_temperature;BMP_pressure;BME280_temperature;BME280_humidity;BME280_pressure;Samples;Min_cycle;Max_cycle;Signal;HPM_P1;HPM_P2
2021/05/11 00:01:23;;;;;;;5.95;5.45;;;14.00;99.90;;;14.81;82.18;97131.75;5209606;28;20313;-66
2021/05/11 00:03:56;;;;;;;6.07;5.68;;;14.00;99.90;;;14.75;82.43;97122.16;5220793;28;20293;-66
2021/05/11 00:06:28;;;;;;;5.95;5.55;;;14.10;99.90;;;14.72;83.05;97132.38;5210316;28;20310;-66
2021/05/11 00:09:00;;;;;;;7.30;6.70;;;14.10;99.90;;;14.75;83.42;97137.59;5217926;28;20283;-66
2021/05/11 00:11:32;;;;;;;6.55;6.00;;;14.10;99.90;;;14.67;84.32;97113.34;5202453;28;20260;-67
2021/05/11 00:14:06;;;;;;;6.63;6.13;;;14.00;99.90;;;14.65;84.30;97112.47;5223599;28;20288;-67
2021/05/11 00:16:38;;;;;;;7.07;6.57;;;14.00;99.90;;;14.64;84.03;97114.13;5208149;28;20222;-67
2021/05/11 00:19:12;;;;;;;7.38;6.80;;;14.00;99.90;;;14.60;84.17;97125.19;5216774;28;20197;-66
2021/05/11 00:21:44;;;;;;;7.78;7.18;;;13.90;99.90;;;14.51;83.83;97132.59;5216643;28;20218;-67
2021/05/11 00:24:17;;;;;;;7.82;7.22;;;13.90;99.90;;;14.50;84.08;97129.97;5215228;28;20288;-66
2021/05/11 00:26:49;;;;;;;7.47;6.97;;;13.80;99.90;;;14.60;82.83;97117.47;5210212;28;20218;-67
2021/05/11 00:29:22;;;;;;;8.05;7.45;;;13.80;99.90;;;14.51;84.48;97095.72;5216013;28;20284;-66
2021/05/11 00:31:54;;;;;;;7.65;7.05;;;13.80;99.90;;;14.51;85.19;97106.00;5213551;28;20199;-67
2021/05/11 00:34:27;;;;;;;7.88;7.28;;;13.80;99.90;;;14.43;84.53;97096.34;5208026;28;20202;-67
2021/05/11 00:36:59;;;;;;;8.13;7.53;;;13.80;99.90;;;14.50;84.49;97109.38;5215192;28;20578;-66
2021/05/11 00:39:31;;;;;;;8.48;7.80;;;13.80;99.90;;;14.50;84.84;97093.97;5211574;28;20292;-68
2021/05/11 00:42:03;;;;;;;9.82;9.02;;;13.80;99.90;;;14.48;84.72;97090.47;5207472;28;20197;-66
2021/05/11 00:44:36;;;;;;;9.50;8.80;;;13.80;99.90;;;14.48;84.19;97085.31;5206531;28;20274;-67
2021/05/11 00:47:08;;;;;;;9.35;8.65;;;13.80;99.90;;;14.53;84.73;97086.38;5218380;28;20312;-66
2021/05/11 00:49:41;;;;;;;10.05;9.25;;;13.80;99.90;;;14.57;84.33;97085.66;5211163;28;20208;-67
2021/05/11 00:52:13;;;;;;;9.15;8.45;;;13.80;99.90;;;14.62;85.41;97094.34;5212162;28;20197;-66
2021/05/11 00:54:47;;;;;;;11.15;10.23;;;13.80;99.90;;;14.62;84.81;97097.81;5214736;28;20644;-66
2021/05/11 00:57:20;;;;;;;11.18;10.27;;;13.90;99.90;;;14.64;84.65;97079.84;5202473;28;20296;-66
2021/05/11 00:59:54;;;;;;;10.85;9.95;;;13.90;99.90;;;14.63;85.22;97080.66;5208701;28;20253;-66
2021/05/11 01:02:26;;;;;;;10.40;9.60;;;13.80;99.90;;;14.62;84.45;97078.91;5216143;28;20484;-66
2021/05/11 01:04:59;;;;;;;9.50;8.70;;;13.80;99.90;;;14.57;84.72;97072.78;5213131;28;20280;-66
2021/05/11 01:07:31;;;;;;;10.48;9.57;;;13.80;99.90;;;14.56;83.77;97076.16;5217000;28;20316;-67
2021/05/11 01:10:05;;;;;;;10.43;9.63;;;13.80;99.90;;;14.56;84.58;97089.88;5207919;28;20277;-67
2021/05/11 01:12:37;;;;;;;9.75;8.95;;;13.80;99.90;;;14.58;84.71;97102.81;5211383;28;20269;-66
2021/05/11 01:15:11;;;;;;;10.80;9.90;;;13.80;99.90;;;14.65;84.66;97094.47;5202573;28;20201;-67
2021/05/11 01:17:50;;;;;;;11.88;10.98;;;13.80;99.90;;;14.66;84.00;97080.75;5213859;28;20327;-66
2021/05/11 01:20:29;;;;;;;11.90;11.00;;;13.80;99.90;;;14.63;83.60;97084.09;5210522;28;20686;-67
2021/05/11 01:26:02;;;;;;;12.63;11.63;;;13.80;99.90;;;14.59;84.60;97072.00;5211927;28;20283;-67
2021/05/11 01:28:44;;;;;;;11.07;10.07;;;13.80;99.90;;;14.56;84.09;97059.03;5211575;28;20293;-67
2021/05/11 01:31:43;;;;;;;11.18;10.27;;;13.80;99.90;;;14.57;84.38;97072.78;5197742;28;20229;-67
2021/05/11 01:48:51;;;;;;;13.55;12.40;;;13.80;99.90;;;14.62;83.71;97025.78;5143751;28;20750;-67
2021/05/11 01:51:53;;;;;;;13.13;12.05;;;13.80;99.90;;;14.66;83.83;97025.88;5149559;28;20198;-66
2021/05/11 02:23:08;;;;;;;14.05;12.88;;;13.90;99.90;;;14.79;82.88;97057.13;5208545;28;20658;-65
2021/05/11 02:25:40;;;;;;;14.40;13.20;;;13.90;99.90;;;14.77;82.75;97048.50;5219531;28;20221;-66
2021/05/11 02:28:13;;;;;;;14.90;13.70;;;13.90;99.90;;;14.74;83.21;97043.25;5202148;28;20293;-65
2021/05/11 02:30:46;;;;;;;15.70;14.32;;;13.90;99.90;;;14.77;82.19;97038.19;5197837;28;20233;-66
2021/05/11 02:33:18;;;;;;;14.82;13.63;;;13.90;99.90;;;14.76;81.75;97036.44;5212696;28;20300;-67
2021/05/11 02:35:50;;;;;;;13.65;12.45;;;13.90;99.90;;;14.74;82.43;97019.25;5208869;28;20257;-66
2021/05/11 02:38:23;;;;;;;12.85;11.77;;;13.90;99.90;;;14.70;82.61;97020.84;5211237;28;20233;-66
2021/05/11 02:40:55;;;;;;;12.52;11.52;;;13.80;99.90;;;14.68;83.00;97012.22;5208068;28;20221;-66
2021/05/11 02:43:30;;;;;;;14.93;13.63;;;13.80;99.90;;;14.68;82.67;97029.34;5206391;28;20302;-66
2021/05/11 02:46:03;;;;;;;14.02;12.73;;;13.80;99.90;;;14.68;82.12;97019.94;5217101;28;20311;-66
2021/05/11 02:48:35;;;;;;;14.50;13.30;;;13.80;99.90;;;14.70;82.56;97025.97;5210495;28;20206;-66
2021/05/11 02:51:07;;;;;;;12.82;11.77;;;13.80;99.90;;;14.74;81.92;97027.81;5212604;28;20225;-65
2021/05/11 02:53:39;;;;;;;12.10;11.10;;;13.80;99.90;;;14.73;82.49;97020.06;5208208;28;20257;-67
2021/05/11 02:56:11;;;;;;;12.95;11.75;;;13.80;99.90;;;14.68;82.26;97025.09;5211255;28;20305;-67
2021/05/11 02:58:48;;;;;;;14.15;13.02;;;13.80;99.90;;;14.70;82.20;97020.84;5207425;28;20229;-67
2021/05/11 03:01:21;;;;;;;13.80;12.60;;;13.80;99.90;;;14.74;81.55;97032.97;5209885;28;20221;-66
2021/05/11 03:03:53;;;;;;;14.07;12.88;;;13.80;99.90;;;14.70;82.52;97036.28;5211055;28;20289;-65
2021/05/11 03:06:25;;;;;;;15.52;14.23;;;13.80;99.90;;;14.78;81.54;97049.34;5209652;28;20283;-65
2021/05/11 03:08:57;;;;;;;14.55;13.25;;;13.80;99.90;;;14.74;81.17;97057.84;5210918;28;20241;-65
2021/05/11 03:11:29;;;;;;;15.00;13.63;;;13.80;99.90;;;14.70;81.95;97046.56;5215169;28;20284;-65
2021/05/11 03:14:01;;;;;;;14.27;13.07;;;13.80;99.90;;;14.71;81.62;97048.31;5212428;28;20229;-66
2021/05/11 03:16:36;;;;;;;13.68;12.52;;;13.80;99.90;;;14.71;81.77;97043.19;5211279;28;20264;-66
2021/05/11 03:19:08;;;;;;;15.52;14.23;;;13.80;99.90;;;14.71;81.81;97053.47;5217918;28;20205;-66
2021/05/11 03:21:41;;;;;;;14.85;13.43;;;13.80;99.90;;;14.83;80.52;97053.78;5213656;28;20221;-66
2021/05/11 03:24:19;;;;;;;13.75;12.55;;;13.80;99.90;;;14.79;81.08;97045.94;5211506;28;20198;-66
2021/05/11 03:26:52;;;;;;;14.70;13.43;;;13.80;99.90;;;14.72;81.39;97042.34;5209489;28;20218;-66
2021/05/11 03:29:24;;;;;;;13.82;12.73;;;13.70;99.90;;;14.65;81.01;97027.59;5219826;28;20657;-66
2021/05/11 03:31:57;;;;;;;14.15;12.85;;;13.70;99.90;;;14.64;81.80;97026.69;5212099;28;20225;-66
2021/05/11 03:34:29;;;;;;;16.10;14.65;;;13.70;99.90;;;14.60;81.88;97030.00;5217699;28;20201;-66
2021/05/11 03:37:02;;;;;;;15.73;14.32;;;13.70;99.90;;;14.60;82.46;97044.56;5206409;28;20221;-67
2021/05/11 03:39:38;;;;;;;16.02;14.52;;;13.70;99.90;;;14.61;82.19;97046.31;5204928;28;20620;-66
2021/05/11 03:42:15;;;;;;;15.43;14.02;;;13.70;99.90;;;14.67;81.10;97046.47;5216688;28;20225;-66
2021/05/11 03:44:51;;;;;;;15.27;13.88;;;13.70;99.90;;;14.60;81.18;97029.16;5214183;28;20233;-67
2021/05/11 03:47:26;;;;;;;16.13;14.60;;;13.70;99.90;;;14.67;81.09;97025.03;5215596;28;20684;-66
2021/05/11 03:49:59;;;;;;;13.60;12.45;;;13.70;99.90;;;14.60;81.08;97029.16;5217753;28;20209;-66
2021/05/11 03:52:31;;;;;;;13.82;12.63;;;13.70;99.90;;;14.61;81.70;97031.75;5214581;28;20289;-67
2021/05/11 03:55:05;;;;;;;15.75;14.30;;;13.70;99.90;;;14.67;81.76;97035.31;5218759;28;20232;-68
2021/05/11 03:57:38;;;;;;;15.88;14.35;;;13.70;99.90;;;14.69;81.08;97033.66;5216364;28;20312;-68
2021/05/11 04:00:13;;;;;;;14.32;13.13;;;13.70;99.90;;;14.68;81.65;97027.66;5207671;28;20248;-67
2021/05/11 04:02:46;;;;;;;17.00;15.40;;;13.70;99.90;;;14.65;81.12;97022.44;5209926;28;20253;-66
2021/05/11 04:05:20;;;;;;;17.38;15.60;;;13.70;99.90;;;14.63;81.68;97013.81;5218412;28;20251;-67
2021/05/11 04:07:56;;;;;;;15.57;14.18;;;13.70;99.90;;;14.77;81.22;97015.03;5213645;28;20264;-67
2021/05/11 04:10:34;;;;;;;16.08;14.63;;;13.80;99.90;;;14.69;81.13;97003.66;5217840;28;20479;-66
2021/05/11 04:16:19;;;;;;;16.83;15.23;;;13.70;99.90;;;14.56;81.95;96999.00;5213777;28;20735;-67
2021/05/11 04:18:54;;;;;;;14.65;13.30;;;13.70;99.90;;;14.53;82.27;96981.78;5208220;28;20197;-66
2021/05/11 04:21:26;;;;;;;15.93;14.52;;;13.70;99.90;;;14.58;82.31;96997.38;5213012;28;20256;-66
2021/05/11 04:23:59;;;;;;;17.77;16.08;;;13.70;99.90;;;14.63;82.10;97003.50;5206693;28;20210;-67
2021/05/11 04:26:32;;;;;;;15.30;13.82;;;13.70;99.90;;;14.68;81.21;97001.94;5211026;28;20655;-66
2021/05/11 04:29:05;;;;;;;17.20;15.50;;;13.70;99.90;;;14.63;81.52;96994.09;5217631;28;20732;-67
2021/05/11 04:31:38;;;;;;;16.50;14.90;;;13.70;99.90;;;14.67;81.20;96992.47;5217278;28;20239;-66
2021/05/11 04:34:11;;;;;;;16.88;15.20;;;13.70;99.90;;;14.72;80.67;96998.59;5203797;28;20197;-66
2021/05/11 04:36:44;;;;;;;18.02;16.23;;;13.80;99.90;;;14.75;80.66;97001.25;5217630;28;20249;-66
2021/05/11 04:39:17;;;;;;;18.27;16.42;;;13.80;99.90;;;14.80;80.45;97004.84;5212296;28;20206;-66
2021/05/11 04:41:50;;;;;;;15.90;14.32;;;13.80;99.90;;;14.78;81.09;97003.91;5208939;28;20312;-67
2021/05/11 04:44:27;;;;;;;17.63;15.82;;;13.90;99.90;;;14.79;80.58;97000.53;5213509;28;20197;-66
2021/05/11 04:47:04;;;;;;;18.38;16.42;;;13.90;99.90;;;14.78;80.28;96993.63;5210410;28;20264;-66
2021/05/11 04:49:38;;;;;;;17.42;15.63;;;13.80;99.90;;;14.81;80.50;96991.13;5213041;28;20232;-66
2021/05/11 04:52:10;;;;;;;16.92;15.20;;;13.90;99.90;;;14.85;80.06;97005.84;5209393;28;20220;-68
2021/05/11 04:54:43;;;;;;;17.35;15.55;;;13.90;99.90;;;14.85;80.81;97004.94;5215174;28;20570;-67
2021/05/11 04:57:15;;;;;;;17.65;15.85;;;13.90;99.90;;;14.85;79.93;97010.97;5210743;28;20736;-66
2021/05/11 04:59:48;;;;;;;17.30;15.50;;;13.80;99.90;;;14.83;80.20;97009.19;5206102;28;20611;-69
2021/05/11 05:02:22;;;;;;;18.13;14.88;;;13.90;99.90;;;14.85;80.01;96999.78;5208010;28;20898;-67
2021/05/11 05:04:55;;;;;;;16.55;14.75;;;13.90;99.90;;;14.87;79.88;96993.84;5201152;28;20194;-67
2021/05/11 05:07:28;;;;;;;16.23;14.52;;;13.80;99.90;;;14.86;79.27;96991.25;5213801;28;20316;-67
2021/05/11 05:10:00;;;;;;;15.15;13.57;;;13.80;99.90;;;14.85;79.91;96992.06;5206927;28;20239;-67
2021/05/11 05:12:33;;;;;;;15.68;14.07;;;13.80;99.90;;;14.87;79.23;97001.56;5218088;28;20200;-67
2021/05/11 05:15:07;;;;;;;14.27;12.77;;;13.90;99.90;;;14.91;79.47;96999.09;5202321;28;20197;-67
2021/05/11 05:17:40;;;;;;;15.90;14.13;;;13.90;99.90;;;15.05;78.83;97002.88;5208249;28;20577;-67
2021/05/11 05:20:14;;;;;;;16.10;14.05;;;14.00;99.90;;;15.03;79.10;97009.72;5212454;28;20204;-67
2021/05/11 05:22:47;;;;;;;16.02;14.43;;;14.00;99.90;;;15.05;78.59;97014.06;5206735;28;20701;-66
2021/05/11 05:25:23;;;;;;;16.33;13.75;;;14.10;99.90;;;15.08;78.28;97016.72;5208186;28;20233;-66
2021/05/11 05:27:58;;;;;;;16.65;14.77;;;14.00;99.90;;;14.99;78.30;97011.31;5202686;28;20300;-65
2021/05/11 05:30:31;;;;;;;15.02;13.43;;;14.00;99.90;;;15.00;78.65;97001.91;5196906;28;20285;-67
2021/05/11 05:33:04;;;;;;;14.88;13.13;;;14.00;99.90;;;15.01;78.82;96995.94;5209608;28;20274;-67
2021/05/11 05:35:38;;;;;;;16.00;14.00;;;14.00;99.90;;;14.95;79.27;96976.06;5209137;28;20234;-66
2021/05/11 05:38:11;;;;;;;17.30;15.20;;;14.00;99.90;;;14.85;78.90;96980.09;5210094;28;20200;-65
2021/05/11 05:40:43;;;;;;;14.38;12.88;;;13.80;99.90;;;14.84;79.29;96988.63;5203161;28;20197;-65
2021/05/11 05:43:16;;;;;;;16.30;14.23;;;13.80;99.90;;;14.86;79.80;96991.25;5216434;28;20617;-67
2021/05/11 05:45:51;;;;;;;15.32;13.60;;;13.90;99.90;;;14.89;79.47;97006.78;5214845;28;20257;-66
2021/05/11 05:48:24;;;;;;;19.52;15.60;;;13.80;99.90;;;14.97;79.30;97004.41;5207172;28;20289;-66
2021/05/11 05:50:59;;;;;;;18.83;14.88;;;13.90;99.90;;;15.00;78.82;97007.06;5208447;28;20195;-65
2021/05/11 05:53:36;;;;;;;16.45;13.48;;;14.00;99.90;;;15.01;78.93;97007.09;5217702;28;20644;-66
2021/05/11 05:56:09;;;;;;;15.60;13.93;;;14.00;99.90;;;15.02;78.94;97013.09;5205129;28;20225;-66
2021/05/11 05:58:41;;;;;;;16.80;14.95;;;14.00;99.90;;;15.02;78.47;97018.25;5213987;28;20554;-67
2021/05/11 06:01:14;;;;;;;18.88;15.43;;;14.00;99.90;;;14.95;78.74;97017.22;5206985;28;20312;-65
2021/05/11 06:03:51;;;;;;;16.27;14.45;;;13.90;99.90;;;15.04;78.03;97016.59;5216503;28;20251;-66
2021/05/11 06:06:25;;;;;;;17.20;15.38;;;14.00;99.90;;;15.06;78.75;97014.94;5206953;28;20284;-66
2021/05/11 06:08:59;;;;;;;17.92;15.48;;;14.00;99.90;;;15.16;77.83;97022.03;5213858;28;20229;-66
2021/05/11 06:11:38;;;;;;;16.70;15.00;;;14.00;99.90;;;15.13;77.99;97019.41;5200126;28;20233;-67
2021/05/11 06:14:16;;;;;;;15.20;13.65;;;14.10;99.90;;;15.11;77.94;97013.38;5208447;28;20208;-67
2021/05/11 06:19:55;;;;;;;15.73;13.95;;;14.10;99.90;;;15.16;78.28;97018.59;5161525;28;20211;-67
2021/05/11 06:22:28;;;;;;;15.10;13.30;;;14.10;99.90;;;15.18;78.48;97014.38;5192840;28;20658;-67
2021/05/11 06:25:01;;;;;;;14.77;13.23;;;14.20;99.90;;;15.17;78.06;96998.06;5217148;28;20233;-66
2021/05/11 06:27:34;;;;;;;16.23;13.68;;;14.20;99.90;;;15.10;77.45;96997.03;5204682;28;20664;-67
2021/05/11 06:30:08;;;;;;;16.02;14.27;;;14.20;99.90;;;15.16;78.13;96996.31;5215047;28;20201;-67
2021/05/11 06:32:41;;;;;;;14.77;12.98;;;14.10;99.90;;;15.14;77.98;96991.94;5205223;28;20718;-67
2021/05/11 06:35:14;;;;;;;18.17;16.23;;;14.10;99.90;;;15.26;77.03;96993.13;5217249;28;20206;-66
2021/05/11 06:37:47;;;;;;;16.10;14.35;;;14.20;99.90;;;15.30;76.89;96994.94;5202113;28;20702;-68
2021/05/11 06:40:20;;;;;;;19.42;15.45;;;14.20;99.90;;;15.30;77.33;96994.06;5207435;28;20299;-68
2021/05/11 06:42:53;;;;;;;15.88;14.18;;;14.20;99.90;;;15.35;77.45;96976.19;5211471;28;20349;-67
2021/05/11 06:48:27;;;;;;;14.93;13.43;;;14.30;99.90;;;15.33;77.78;96974.41;5179102;28;20199;-68
2021/05/11 06:53:52;;;;;;;15.23;13.70;;;14.40;99.90;;;15.53;76.20;97004.94;5207462;28;20234;-68
2021/05/11 06:56:25;;;;;;;15.98;14.27;;;14.40;99.90;;;15.51;76.55;96998.91;5218016;28;20251;-68
2021/05/11 06:58:57;;;;;;;14.75;13.30;;;14.40;99.90;;;15.44;76.50;96994.41;5214163;28;20803;-67
2021/05/11 07:01:30;;;;;;;14.20;12.55;;;14.40;99.90;;;15.43;76.70;96984.97;5217576;28;20320;-68
2021/05/11 07:04:03;;;;;;;15.80;14.20;;;14.40;99.90;;;15.44;76.65;96990.13;5213531;28;20198;-67
2021/05/11 07:06:38;;;;;;;14.18;12.60;;;14.40;99.90;;;15.43;76.75;96992.69;5221431;28;20270;-68
2021/05/11 07:09:15;;;;;;;14.30;12.82;;;14.40;99.90;;;15.49;76.24;96972.22;5204830;28;20201;-68
2021/05/11 07:14:39;;;;;;;14.57;12.95;;;14.40;99.90;;;15.47;75.69;96961.88;5214868;28;20724;-68
2021/05/11 07:17:12;;;;;;;13.38;12.07;;;14.40;99.90;;;15.47;76.18;96961.00;5214061;28;20696;-68
2021/05/11 07:19:45;;;;;;;13.18;11.88;;;14.40;99.90;;;15.58;75.69;96958.69;5212043;28;20202;-67
2021/05/11 07:22:17;;;;;;;13.30;11.90;;;14.50;99.90;;;15.65;75.29;96953.72;5212306;28;20308;-69
2021/05/11 07:24:53;;;;;;;15.68;14.05;;;14.50;99.90;;;15.73;74.84;96965.06;5212080;28;20252;-69
2021/05/11 07:27:45;;;;;;;15.65;14.05;;;14.60;99.90;;;15.63;75.05;96957.97;5215328;28;20743;-68
2021/05/11 07:30:26;;;;;;;15.60;14.00;;;14.60;99.90;;;15.66;74.84;96955.44;5214734;28;20241;-69
2021/05/11 07:32:59;;;;;;;16.02;14.32;;;14.50;99.90;;;15.80;74.38;96955.78;5211058;28;20639;-68
2021/05/11 07:35:31;;;;;;;16.90;15.15;;;14.50;99.90;;;15.73;74.61;96959.91;5213322;28;20238;-68
2021/05/11 07:38:05;;;;;;;15.90;14.30;;;14.60;99.90;;;15.82;74.20;96955.81;5209289;28;20246;-68
2021/05/11 07:40:39;;;;;;;16.15;14.43;;;14.60;99.90;;;15.89;73.55;96953.41;5207955;28;20201;-68
2021/05/11 07:43:12;;;;;;;17.20;15.40;;;14.80;99.90;;;15.75;74.58;96942.78;5199646;28;20228;-69
2021/05/11 07:46:03;;;;;;;15.50;13.90;;;14.70;99.90;;;15.73;74.77;96925.56;5201265;28;20290;-66
2021/05/11 07:52:07;;;;;;;15.23;13.68;;;14.80;99.90;;;15.73;75.19;96934.16;5203681;28;20545;-68
2021/05/11 08:03:35;;;;;;;13.95;12.55;;;14.80;99.90;;;15.86;73.84;96955.06;5220871;28;20231;-68
2021/05/11 08:14:46;;;;;;;16.77;15.07;;;15.00;99.90;;;16.23;73.12;96955.81;5198611;28;20214;-68
2021/05/11 08:17:19;;;;;;;16.20;14.02;;;15.10;99.90;;;16.20;73.05;96962.66;5204838;28;20439;-67
2021/05/11 08:23:06;;;;;;;15.23;13.55;;;15.30;99.90;;;16.41;72.40;96964.78;5177395;28;20748;-69
2021/05/11 08:28:30;;;;;;;14.38;12.82;;;15.40;99.90;;;16.53;71.65;96951.25;5201577;28;20241;-69
2021/05/11 08:31:04;;;;;;;15.15;13.15;;;15.40;99.90;;;16.78;69.71;96936.25;5200645;28;20645;-68
2021/05/11 08:33:36;;;;;;;16.25;13.35;;;15.60;99.90;;;16.67;70.28;96941.19;5206313;28;20329;-68
2021/05/11 08:36:11;;;;;;;14.18;12.70;;;15.50;99.90;;;16.44;71.42;96931.31;5207329;28;20232;-68
2021/05/11 08:38:43;;;;;;;13.40;12.07;;;15.40;99.90;;;16.40;71.66;96933.81;5199736;28;20260;-68
2021/05/11 08:41:16;;;;;;;13.43;12.13;;;15.30;99.90;;;16.48;71.86;96921.03;5208882;28;20296;-68
2021/05/11 08:43:48;;;;;;;13.95;12.55;;;15.40;99.90;;;16.53;71.25;96909.97;5197624;28;20257;-68
2021/05/11 08:46:22;;;;;;;12.25;10.95;;;15.40;99.90;;;16.62;71.18;96917.00;5203614;28;20325;-69
2021/05/11 08:49:00;;;;;;;15.10;13.07;;;15.50;99.90;;;16.77;70.24;96908.69;5202522;28;20194;-65
2021/05/11 08:51:43;;;;;;;13.65;12.35;;;15.50;99.90;;;16.87;69.20;96905.44;5203826;28;20256;-68
2021/05/11 08:54:25;;;;;;;12.30;11.00;;;15.60;99.90;;;16.86;69.36;96909.75;5198526;28;20260;-69
2021/05/11 09:06:03;;;;;;;11.65;10.55;;;15.70;99.90;;;17.14;68.12;96919.63;5207752;28;20240;-68
2021/05/11 09:26:00;;;;;;;11.52;10.45;;;15.90;99.90;;;17.13;68.08;96954.06;5210100;28;20685;-68
2021/05/11 09:28:39;;;;;;;11.80;10.70;;;16.00;99.90;;;17.08;68.11;96957.44;5200082;28;20222;-68
2021/05/11 09:31:27;;;;;;;11.68;10.60;;;15.90;99.90;;;17.15;67.71;96957.56;5201167;28;20526;-68
2021/05/11 09:34:17;;;;;;;11.45;10.35;;;16.00;99.90;;;17.12;68.76;96953.22;5207314;28;20567;-64
2021/05/11 10:31:23;;;;;;;10.90;9.90;;;16.40;99.90;;;17.42;66.81;96911.47;5138358;28;20258;-67
2021/05/11 10:41:57;;;;;;;12.15;10.95;;;16.30;99.90;;;17.46;66.81;96902.94;5197058;28;20285;-66
2021/05/11 10:48:19;;;;;;;10.82;9.82;;;16.50;99.90;;;17.68;67.44;96898.06;5182288;28;20222;-66
2021/05/11 10:50:53;;;;;;;10.68;9.65;;;16.50;99.90;;;17.90;66.12;96909.59;5217486;28;20635;-66
2021/05/11 10:54:02;;;;;;;11.70;10.50;;;16.70;99.90;;;17.89;65.78;96928.56;5219302;28;20254;-65
2021/05/11 10:56:47;;;;;;;10.95;9.95;;;16.60;99.90;;;17.87;65.58;96920.75;5201005;28;20629;-65
2021/05/11 10:59:31;;;;;;;11.38;10.15;;;16.70;99.90;;;17.77;66.47;96934.41;5207748;28;20288;-65
2021/05/11 11:02:42;;;;;;;9.90;9.05;;;16.60;99.90;;;17.74;65.96;96934.31;5218161;28;20296;-66
2021/05/11 11:05:41;;;;;;;10.00;9.18;;;16.60;99.90;;;17.74;66.04;96919.72;5204848;28;20205;-66
2021/05/11 11:08:32;;;;;;;9.77;8.77;;;16.60;99.90;;;17.62;67.18;96921.22;5206908;28;20663;-66
2021/05/11 11:11:11;;;;;;;10.25;9.35;;;16.50;99.90;;;17.46;66.61;96925.34;5208121;28;20699;-66
2021/05/11 11:13:45;;;;;;;9.60;8.77;;;16.40;99.90;;;17.51;66.66;96919.38;5212902;28;20225;-66
2021/05/11 11:16:19;;;;;;;7.18;6.57;;;16.40;99.90;;;17.58;67.05;96922.06;5208355;28;20236;-66
2021/05/11 11:18:52;;;;;;;9.07;8.27;;;16.40;99.90;;;17.56;66.78;96925.47;5208601;28;20285;-66
2021/05/11 11:21:45;;;;;;;8.77;8.05;;;16.40;99.90;;;17.68;66.43;96932.53;5210282;28;20685;-67
2021/05/11 11:24:25;;;;;;;10.00;9.02;;;16.50;99.90;;;17.66;66.21;96930.78;5194568;28;20241;-66
2021/05/11 11:26:59;;;;;;;9.30;8.60;;;16.40;99.90;;;17.49;67.13;96928.81;5195559;28;20981;-66
2021/05/11 11:29:32;;;;;;;9.30;8.52;;;16.30;99.90;;;17.42;67.44;96910.59;5203662;28;20202;-67
2021/05/11 11:32:05;;;;;;;8.75;8.05;;;16.30;99.90;;;17.49;67.13;96913.31;5217344;28;20300;-66
2021/05/11 11:34:40;;;;;;;9.65;8.85;;;16.30;99.90;;;17.42;67.36;96919.22;5211467;28;20208;-66
2021/05/11 11:37:15;;;;;;;10.10;9.20;;;16.40;99.90;;;17.51;66.96;96921.97;5208918;28;20315;-67
2021/05/11 11:39:50;;;;;;;10.25;9.35;;;16.30;99.90;;;17.59;66.26;96939.28;5204956;28;20233;-66
2021/05/11 11:42:24;;;;;;;10.15;9.18;;;16.40;99.90;;;17.64;66.62;96950.56;5212022;28;20232;-66
2021/05/11 11:44:59;;;;;;;10.07;9.18;;;16.40;99.90;;;17.58;66.64;96953.06;5211065;28;20340;-66
2021/05/11 11:47:40;;;;;;;9.70;8.70;;;16.40;99.90;;;17.73;66.99;96961.03;5211063;28;20217;-66
2021/05/11 11:50:14;;;;;;;9.13;8.18;;;16.50;99.90;;;17.82;66.56;96960.31;5203386;28;20324;-66
2021/05/11 11:52:57;;;;;;;9.55;8.82;;;16.60;99.90;;;17.79;66.40;96963.72;5203221;28;20233;-65
2021/05/11 11:58:23;;;;;;;9.40;8.60;;;16.60;99.90;;;17.79;65.47;96964.59;5177420;28;20296;-65
2021/05/11 12:00:56;;;;;;;7.72;7.13;;;16.70;99.90;;;17.68;66.99;96965.25;5208493;28;20206;-66
2021/05/11 12:03:28;;;;;;;7.90;7.30;;;16.60;99.90;;;17.74;66.86;96973.09;5217762;28;20329;-66
2021/05/11 12:06:03;;;;;;;7.35;6.70;;;16.70;99.90;;;17.74;67.23;96975.69;5211002;28;20218;-66
2021/05/11 12:08:36;;;;;;;9.75;8.85;;;16.70;99.90;;;17.59;68.97;96971.16;5217365;28;20209;-66
2021/05/11 12:11:09;;;;;;;9.57;8.77;;;16.60;99.90;;;17.49;69.19;96967.56;5215081;28;20193;-66
2021/05/11 12:13:43;;;;;;;9.98;9.18;;;16.60;99.90;;;17.34;70.27;96969.94;5214195;28;20623;-66
2021/05/11 12:16:17;;;;;;;10.15;9.35;;;16.50;99.90;;;17.47;70.41;96955.47;5209843;28;20311;-66
2021/05/11 12:19:03;;;;;;;8.43;7.80;;;16.50;99.90;;;17.42;71.50;96950.22;5203543;28;20198;-66
2021/05/11 12:21:51;;;;;;;9.23;8.35;;;16.50;99.90;;;17.28;71.84;96962.94;5205405;28;20289;-66
2021/05/11 12:24:27;;;;;;;9.75;8.93;;;16.50;99.90;;;17.29;73.06;96956.06;5202176;28;20315;-67
2021/05/11 12:27:15;;;;;;;10.23;9.32;;;16.50;99.90;;;17.43;72.29;96959.75;5208261;28;20304;-66
2021/05/11 12:30:07;;;;;;;10.23;9.40;;;16.50;99.90;;;17.29;71.72;96956.06;5205210;28;20203;-66
2021/05/11 12:32:40;;;;;;;9.07;8.27;;;16.50;99.90;;;17.18;72.33;96937.81;5219145;28;20725;-66
2021/05/11 12:35:14;;;;;;;10.27;9.48;;;16.40;99.90;;;17.21;72.83;96950.75;5209850;28;20437;-66
2021/05/11 12:37:51;;;;;;;10.95;10.05;;;16.40;99.90;;;17.21;73.83;96942.16;5208908;28;20244;-67
2021/05/11 12:40:28;;;;;;;11.27;10.35;;;16.40;99.90;;;17.25;71.55;96938.75;5210015;28;20236;-67
2021/05/11 12:43:02;;;;;;;11.02;10.18;;;16.40;99.90;;;17.15;72.29;96948.09;5198849;28;20217;-65
2021/05/11 12:45:51;;;;;;;10.13;9.30;;;16.40;99.90;;;17.20;73.83;96955.91;5204582;28;20204;-64
2021/05/11 12:48:24;;;;;;;9.30;8.50;;;16.40;99.90;;;17.26;74.00;96963.78;5204643;28;20233;-62
2021/05/11 12:50:57;;;;;;;8.90;8.00;;;16.50;99.90;;;17.28;73.61;96969.81;5197831;28;20285;-68
2021/05/11 12:53:34;;;;;;;16.67;9.05;;;16.50;99.90;;;17.34;73.22;96969.94;5202798;28;20284;-60
2021/05/11 12:56:18;;;;;;;8.90;8.10;;;16.50;99.90;;;17.37;73.32;96969.97;5211604;28;20247;-65
2021/05/11 12:59:03;;;;;;;8.25;7.63;;;16.50;99.90;;;17.52;72.43;96974.50;5199214;28;20293;-66
2021/05/11 13:01:51;;;;;;;9.63;8.82;;;16.50;99.90;;;17.50;73.66;96977.06;5211944;28;20650;-67
2021/05/11 13:04:52;;;;;;;8.82;8.00;;;16.50;99.90;;;17.45;73.90;96988.16;5211907;28;20228;-67
2021/05/11 13:16:16;;;;;;;10.57;9.68;;;16.40;99.90;;;17.24;74.90;97002.47;5206710;28;20234;-64
2021/05/11 13:22:04;;;;;;;12.00;11.00;;;16.40;99.90;;;17.30;76.22;97002.56;5206279;28;20295;-64
2021/05/11 13:27:31;;;;;;;11.77;10.80;;;16.30;99.90;;;17.18;76.12;97006.66;5190644;28;20249;-64
2021/05/11 13:30:13;;;;;;;11.10;10.10;;;16.30;99.90;;;17.09;77.25;97016.00;5202838;28;20301;-64
2021/05/11 13:33:00;;;;;;;12.13;11.07;;;16.30;99.90;;;16.98;79.12;97017.50;5212751;28;20629;-65
2021/05/11 13:35:33;;;;;;;12.75;11.70;;;16.20;99.90;;;16.92;79.44;97009.66;5196935;28;20293;-65
2021/05/11 13:38:06;;;;;;;12.77;11.68;;;16.10;99.90;;;16.84;79.76;97013.81;5215737;28;20292;-65
2021/05/11 13:40:39;;;;;;;14.68;13.18;;;16.10;99.90;;;16.74;81.21;97022.16;5220623;22;20700;-64
2021/05/11 13:43:13;;;;;;;12.15;11.15;;;16.00;99.90;;;16.58;81.56;97037.34;5206832;28;20245;-64
2021/05/11 13:45:46;;;;;;;14.35;13.15;;;15.90;99.90;;;16.49;83.23;97026.84;5204498;28;20725;-63
2021/05/11 13:48:21;;;;;;;16.02;14.63;;;15.80;99.90;;;16.43;83.96;97031.91;5203452;28;20214;-62
2021/05/11 13:50:58;;;;;;;15.45;14.15;;;15.80;99.90;;;16.27;84.78;97030.69;5188140;28;20218;-62
2021/05/11 13:53:34;;;;;;;16.52;15.05;;;15.60;99.90;;;16.16;86.02;97033.03;5179106;28;20218;-62
2021/05/11 14:04:40;;;;;;;20.45;18.50;;;15.30;99.90;;;15.75;89.67;97024.38;5183749;28;20227;-63
2021/05/11 14:07:13;;;;;;;22.20;20.08;;;15.20;99.90;;;15.65;90.32;97023.28;5176751;28;20206;-63
2021/05/11 14:09:46;;;;;;;20.50;18.65;;;15.10;99.90;;;15.59;90.46;97020.53;5184043;28;20222;-63
2021/05/11 14:12:18;;;;;;;19.20;17.60;;;15.00;99.90;;;15.52;91.39;97023.81;5182180;28;20294;-63